Culleredo, Spain
Current Conditions -  °F | °C
As of 1:00 AM on Sunday 21 Dec 2014 (Local Time) from LECO Reporting Station
Haze Haze  
Wind Chill: 55°   Ceiling: 400
Heat Index: 55°   Visibility: 1.8mi
Dew Point: 55°   Wind: 0mph
Humidity: 100%   Direction: NA
Pressure: 30.56"   Gusts: NA
Location:  43.29°N, 8.39°W
Report Text: LECO 210000Z 00000KT 3000 BR BKN004 13/13 Q1035 TEMPO 0500 FG BKN003
Loading
Personal Weather Stations






























Interactive Weather Map New forecast layout! Learn more

10-Day Weather Forecast

Advertisements
Track Severe Weather on mobile